Time;durP1;ratioP1;P1;durP2;ratioP2;P2;SDS_P1;SDS_P2;PMS_P1;PMS_P2;Temp;Humidity;BMP_temperature;BMP_pressure;BME280_temperature;BME280_humidity;BME280_pressure;Samples;Min_cycle;Max_cycle;Signal;HPM_P1;HPM_P2
2022/12/06 00:01:17;;;;;;;0.80;0.80;;;;;;;;;;6215794;23;20173;-80
2022/12/06 00:03:43;;;;;;;0.80;0.80;;;;;;;;;;6214318;22;20567;-78
2022/12/06 00:06:11;;;;;;;0.70;0.70;;;;;;;;;;6210756;23;20152;-78
2022/12/06 00:08:37;;;;;;;0.70;0.70;;;;;;;;;;6211777;23;20190;-79
2022/12/06 00:11:04;;;;;;;0.70;0.70;;;;;;;;;;6211461;23;20159;-78
2022/12/06 00:13:30;;;;;;;0.70;0.70;;;;;;;;;;6210156;22;20641;-78
2022/12/06 00:15:59;;;;;;;0.70;0.70;;;;;;;;;;6210581;23;20151;-79
2022/12/06 00:18:25;;;;;;;0.77;0.77;;;;;;;;;;6210499;23;20534;-79
2022/12/06 00:20:51;;;;;;;0.80;0.80;;;;;;;;;;6210970;23;20155;-80
2022/12/06 00:23:17;;;;;;;0.80;0.80;;;;;;;;;;6209839;22;20171;-79
2022/12/06 00:25:43;;;;;;;0.80;0.80;;;;;;;;;;6211265;23;20734;-77
2022/12/06 00:28:09;;;;;;;0.70;0.70;;;;;;;;;;6210682;23;20147;-78
2022/12/06 00:30:35;;;;;;;0.80;0.80;;;;;;;;;;6210534;23;20156;-78
2022/12/06 00:33:01;;;;;;;0.80;0.80;;;;;;;;;;6210357;22;20167;-78
2022/12/06 00:35:27;;;;;;;0.80;0.80;;;;;;;;;;6210971;23;20166;-79
2022/12/06 00:37:53;;;;;;;0.70;0.70;;;;;;;;;;6210377;23;20152;-78
2022/12/06 00:40:19;;;;;;;0.80;0.80;;;;;;;;;;6208522;23;20155;-78
2022/12/06 00:42:45;;;;;;;0.90;0.90;;;;;;;;;;6208401;22;20275;-79
2022/12/06 00:45:11;;;;;;;0.73;0.73;;;;;;;;;;6209157;23;20148;-78
2022/12/06 00:47:37;;;;;;;0.70;0.70;;;;;;;;;;6209870;23;20181;-79
2022/12/06 00:50:03;;;;;;;0.80;0.80;;;;;;;;;;6208864;23;20293;-77
2022/12/06 00:52:29;;;;;;;0.80;0.80;;;;;;;;;;6208206;22;20613;-78
2022/12/06 00:54:55;;;;;;;0.80;0.80;;;;;;;;;;6209485;23;20159;-76
2022/12/06 00:57:21;;;;;;;0.73;0.73;;;;;;;;;;6208776;23;20152;-75
2022/12/06 00:59:47;;;;;;;0.80;0.80;;;;;;;;;;6209077;23;20151;-78
2022/12/06 01:02:13;;;;;;;0.80;0.80;;;;;;;;;;6210201;22;20152;-79
2022/12/06 01:04:39;;;;;;;0.80;0.80;;;;;;;;;;6210448;23;20194;-79
2022/12/06 01:07:05;;;;;;;0.70;0.70;;;;;;;;;;6209545;23;20144;-79
2022/12/06 01:09:31;;;;;;;0.80;0.80;;;;;;;;;;6210120;23;20191;-78
2022/12/06 01:11:57;;;;;;;0.80;0.80;;;;;;;;;;6209618;23;20729;-78
2022/12/06 01:14:24;;;;;;;0.70;0.70;;;;;;;;;;6207907;22;20171;-78
2022/12/06 01:16:50;;;;;;;0.70;0.70;;;;;;;;;;6209965;23;20162;-78
2022/12/06 01:19:16;;;;;;;0.70;0.70;;;;;;;;;;6209998;23;20181;-78
2022/12/06 01:21:42;;;;;;;0.80;0.80;;;;;;;;;;6210305;23;20230;-78
2022/12/06 01:24:08;;;;;;;0.80;0.80;;;;;;;;;;6209482;22;20652;-78
2022/12/06 01:26:35;;;;;;;0.80;0.80;;;;;;;;;;6210037;23;20147;-77
2022/12/06 01:29:01;;;;;;;0.80;0.80;;;;;;;;;;6210274;23;20283;-77
2022/12/06 01:31:28;;;;;;;0.80;0.80;;;;;;;;;;6210087;23;20147;-78
2022/12/06 01:33:54;;;;;;;0.80;0.80;;;;;;;;;;6209740;22;20246;-76
2022/12/06 01:36:24;;;;;;;0.80;0.80;;;;;;;;;;6210664;23;20182;-77
2022/12/06 01:38:53;;;;;;;0.80;0.80;;;;;;;;;;6210325;23;20156;-77
2022/12/06 01:41:20;;;;;;;0.80;0.80;;;;;;;;;;6210244;23;20170;-80
2022/12/06 01:43:47;;;;;;;0.80;0.80;;;;;;;;;;6209972;22;20171;-77
2022/12/06 01:46:32;;;;;;;0.80;0.80;;;;;;;;;;6210388;23;20169;-77
2022/12/06 01:49:18;;;;;;;0.80;0.80;;;;;;;;;;6210155;23;20261;-77
2022/12/06 01:51:47;;;;;;;0.90;0.90;;;;;;;;;;6210848;23;20160;-78
2022/12/06 01:54:14;;;;;;;0.80;0.80;;;;;;;;;;6210660;22;20164;-78
2022/12/06 01:56:41;;;;;;;0.80;0.80;;;;;;;;;;6210980;23;20159;-79
2022/12/06 01:59:07;;;;;;;0.83;0.83;;;;;;;;;;6210858;23;20151;-78
2022/12/06 02:01:34;;;;;;;0.90;0.90;;;;;;;;;;6210900;23;20148;-78
2022/12/06 02:04:00;;;;;;;0.90;0.90;;;;;;;;;;6209654;22;20182;-79
2022/12/06 02:06:27;;;;;;;0.90;0.90;;;;;;;;;;6210535;23;20147;-78
2022/12/06 02:08:54;;;;;;;0.90;0.90;;;;;;;;;;6210157;23;20187;-77
2022/12/06 02:11:20;;;;;;;0.80;0.80;;;;;;;;;;6211293;23;20239;-80
2022/12/06 02:13:46;;;;;;;0.90;0.90;;;;;;;;;;6211309;22;20179;-79
2022/12/06 02:16:32;;;;;;;0.90;0.90;;;;;;;;;;6212223;23;20500;-79
2022/12/06 02:19:17;;;;;;;0.80;0.80;;;;;;;;;;6228003;23;20152;-79
2022/12/06 02:21:45;;;;;;;0.90;0.90;;;;;;;;;;6212046;23;20151;-80
2022/12/06 02:24:41;;;;;;;1.00;1.00;;;;;;;;;;6212240;22;20190;-80
2022/12/06 02:27:10;;;;;;;0.90;0.90;;;;;;;;;;6240896;23;20612;-80
2022/12/06 02:29:36;;;;;;;0.90;0.90;;;;;;;;;;6213654;23;20179;-79
2022/12/06 02:32:10;;;;;;;0.90;0.90;;;;;;;;;;6213661;23;20147;-80
2022/12/06 02:34:39;;;;;;;0.90;0.90;;;;;;;;;;6232647;22;20175;-80
2022/12/06 02:37:19;;;;;;;0.80;0.80;;;;;;;;;;6236230;23;20140;-80
2022/12/06 02:39:56;;;;;;;0.90;0.90;;;;;;;;;;6227514;22;20201;-79
2022/12/06 02:42:25;;;;;;;0.80;0.80;;;;;;;;;;6213919;22;20163;-77
2022/12/06 02:44:54;;;;;;;0.87;0.87;;;;;;;;;;6214493;23;20147;-79
2022/12/06 02:47:22;;;;;;;0.80;0.80;;;;;;;;;;6212476;23;20632;-78
2022/12/06 02:49:49;;;;;;;0.80;0.80;;;;;;;;;;6213518;23;20206;-78
2022/12/06 02:52:16;;;;;;;0.80;0.80;;;;;;;;;;6212127;22;20207;-77
2022/12/06 02:54:43;;;;;;;0.80;0.80;;;;;;;;;;6211646;23;20171;-79
2022/12/06 02:57:09;;;;;;;0.80;0.80;;;;;;;;;;6210147;23;20155;-78
2022/12/06 02:59:35;;;;;;;0.90;0.90;;;;;;;;;;6209879;23;20530;-78
2022/12/06 03:02:02;;;;;;;0.90;0.90;;;;;;;;;;6209445;23;20155;-78
2022/12/06 03:04:45;;;;;;;0.90;0.90;;;;;;;;;;6209873;22;20225;-78
2022/12/06 03:07:17;;;;;;;0.80;0.80;;;;;;;;;;6212587;23;20148;-79
2022/12/06 03:09:46;;;;;;;0.90;0.90;;;;;;;;;;6215844;23;20194;-80
2022/12/06 03:12:21;;;;;;;0.87;0.87;;;;;;;;;;6211749;22;20242;-78
2022/12/06 03:14:56;;;;;;;0.80;0.80;;;;;;;;;;6209905;23;20154;-79
2022/12/06 03:17:27;;;;;;;0.80;0.80;;;;;;;;;;6210599;23;20273;-78
2022/12/06 03:19:56;;;;;;;0.80;0.80;;;;;;;;;;6211009;23;20143;-79
2022/12/06 03:22:25;;;;;;;0.80;0.80;;;;;;;;;;6210476;22;20158;-79
2022/12/06 03:24:52;;;;;;;0.90;0.90;;;;;;;;;;6211950;23;20167;-79
2022/12/06 03:27:19;;;;;;;0.87;0.87;;;;;;;;;;6212507;23;20162;-81
2022/12/06 03:29:56;;;;;;;0.80;0.80;;;;;;;;;;6212119;23;20182;-80
2022/12/06 03:32:24;;;;;;;0.90;0.90;;;;;;;;;;6212712;22;20193;-80
2022/12/06 03:34:51;;;;;;;0.80;0.80;;;;;;;;;;6212424;23;20175;-79
2022/12/06 03:37:20;;;;;;;0.80;0.80;;;;;;;;;;6215518;23;20178;-79
2022/12/06 03:40:09;;;;;;;0.80;0.80;;;;;;;;;;6226614;23;20152;-80
2022/12/06 03:42:36;;;;;;;0.80;0.80;;;;;;;;;;6229227;22;20203;-81
2022/12/06 03:45:02;;;;;;;0.80;0.80;;;;;;;;;;6220557;23;20490;-80
2022/12/06 03:47:42;;;;;;;0.73;0.73;;;;;;;;;;6214307;23;20151;-78
2022/12/06 03:50:11;;;;;;;0.80;0.80;;;;;;;;;;6213615;23;20179;-78
2022/12/06 03:52:37;;;;;;;0.83;0.83;;;;;;;;;;6212175;22;20473;-78
2022/12/06 03:55:04;;;;;;;0.80;0.80;;;;;;;;;;6214001;23;20269;-79
2022/12/06 03:57:30;;;;;;;0.87;0.87;;;;;;;;;;6214583;23;20151;-77
2022/12/06 03:59:56;;;;;;;0.80;0.80;;;;;;;;;;6214140;23;20531;-77
2022/12/06 04:02:22;;;;;;;0.70;0.70;;;;;;;;;;6213950;22;20228;-78
2022/12/06 04:04:48;;;;;;;0.77;0.77;;;;;;;;;;6214736;23;20155;-79
2022/12/06 04:07:18;;;;;;;0.90;0.90;;;;;;;;;;6213651;23;20204;-78
2022/12/06 04:10:01;;;;;;;0.80;0.80;;;;;;;;;;6213104;23;20236;-79
2022/12/06 04:15:34;;;;;;;0.73;0.73;;;;;;;;;;6305494;22;20856;-77
2022/12/06 04:18:09;;;;;;;0.73;0.73;;;;;;;;;;6304166;22;20146;-79
2022/12/06 04:23:24;;;;;;;0.70;0.70;;;;;;;;;;6210247;22;20210;-79
2022/12/06 04:25:50;;;;;;;0.80;0.80;;;;;;;;;;6210599;23;20155;-79
2022/12/06 04:39:14;;;;;;;0.70;0.70;;;;;;;;;;6215156;23;20615;-79
2022/12/06 04:44:24;;;;;;;0.90;0.90;;;;;;;;;;6217051;22;20596;-80
2022/12/06 04:46:50;;;;;;;0.87;0.87;;;;;;;;;;6221334;23;20203;-82
2022/12/06 04:49:16;;;;;;;0.80;0.80;;;;;;;;;;6218451;23;20572;-79
2022/12/06 04:51:42;;;;;;;0.90;0.90;;;;;;;;;;6216438;23;20156;-79
2022/12/06 04:54:08;;;;;;;0.80;0.80;;;;;;;;;;6215258;22;20227;-80
2022/12/06 04:56:34;;;;;;;0.87;0.87;;;;;;;;;;6216696;23;20144;-79
2022/12/06 04:59:00;;;;;;;0.80;0.80;;;;;;;;;;6216728;23;20159;-79
2022/12/06 05:01:27;;;;;;;0.80;0.80;;;;;;;;;;6216952;23;20163;-79
2022/12/06 05:03:52;;;;;;;0.80;0.80;;;;;;;;;;6216407;22;20644;-80
2022/12/06 05:06:18;;;;;;;0.80;0.80;;;;;;;;;;6218002;23;20143;-79
2022/12/06 05:08:44;;;;;;;0.80;0.80;;;;;;;;;;6216251;23;20256;-82
2022/12/06 05:11:10;;;;;;;0.80;0.80;;;;;;;;;;6213173;23;20247;-81
2022/12/06 05:13:36;;;;;;;0.87;0.87;;;;;;;;;;6210687;22;20224;-78
2022/12/06 05:16:04;;;;;;;0.80;0.80;;;;;;;;;;6211574;23;20155;-80
2022/12/06 05:18:30;;;;;;;0.80;0.80;;;;;;;;;;6211722;23;20151;-79
2022/12/06 05:21:07;;;;;;;0.80;0.80;;;;;;;;;;6211557;23;20200;-79
2022/12/06 05:23:33;;;;;;;0.80;0.80;;;;;;;;;;6210856;22;20224;-79
2022/12/06 05:26:00;;;;;;;0.90;0.90;;;;;;;;;;6211016;23;20151;-80
2022/12/06 05:28:27;;;;;;;0.90;0.90;;;;;;;;;;6210554;23;20159;-80
2022/12/06 05:30:53;;;;;;;0.80;0.80;;;;;;;;;;6211665;23;20159;-79
2022/12/06 05:33:19;;;;;;;0.80;0.80;;;;;;;;;;6212278;22;20682;-79
2022/12/06 05:35:45;;;;;;;0.80;0.80;;;;;;;;;;6213283;23;20175;-81
2022/12/06 05:38:11;;;;;;;0.80;0.80;;;;;;;;;;6212683;23;20185;-81
2022/12/06 05:40:39;;;;;;;0.80;0.80;;;;;;;;;;6211964;23;20159;-79
2022/12/06 05:43:05;;;;;;;0.80;0.80;;;;;;;;;;6206974;22;20202;-77
2022/12/06 05:45:31;;;;;;;0.80;0.80;;;;;;;;;;6209959;23;20155;-77
2022/12/06 05:47:57;;;;;;;0.80;0.80;;;;;;;;;;6210556;23;20162;-78
2022/12/06 05:50:23;;;;;;;0.70;0.70;;;;;;;;;;6210206;23;20434;-78
2022/12/06 05:52:53;;;;;;;0.77;0.77;;;;;;;;;;6211056;22;20201;-79
2022/12/06 05:55:19;;;;;;;0.70;0.70;;;;;;;;;;6211282;23;20230;-79
2022/12/06 05:57:45;;;;;;;0.80;0.80;;;;;;;;;;6211468;23;20173;-77
2022/12/06 06:00:11;;;;;;;0.70;0.70;;;;;;;;;;6211012;23;20175;-75
2022/12/06 06:02:37;;;;;;;0.80;0.80;;;;;;;;;;6209391;22;20250;-76
2022/12/06 06:05:03;;;;;;;0.90;0.90;;;;;;;;;;6209894;23;20191;-76
2022/12/06 06:07:29;;;;;;;0.70;0.70;;;;;;;;;;6209873;23;20152;-76
2022/12/06 06:09:55;;;;;;;0.80;0.80;;;;;;;;;;6209982;23;20618;-76
2022/12/06 06:12:21;;;;;;;0.80;0.80;;;;;;;;;;6209799;22;20151;-76
2022/12/06 06:14:47;;;;;;;0.80;0.80;;;;;;;;;;6209792;23;20602;-76
2022/12/06 06:17:13;;;;;;;0.80;0.80;;;;;;;;;;6209734;23;20155;-76
2022/12/06 06:19:39;;;;;;;0.83;0.83;;;;;;;;;;6209642;23;20644;-76
2022/12/06 06:22:05;;;;;;;0.80;0.80;;;;;;;;;;6209469;23;20155;-75
2022/12/06 06:24:35;;;;;;;0.70;0.70;;;;;;;;;;6210098;22;20651;-76
2022/12/06 06:27:02;;;;;;;0.83;0.83;;;;;;;;;;6210159;23;20151;-76
2022/12/06 06:29:28;;;;;;;0.80;0.80;;;;;;;;;;6209912;23;20179;-75
2022/12/06 06:31:54;;;;;;;0.80;0.80;;;;;;;;;;6209820;23;20167;-75
2022/12/06 06:34:20;;;;;;;0.80;0.80;;;;;;;;;;6209094;22;20644;-75
2022/12/06 06:36:46;;;;;;;0.70;0.70;;;;;;;;;;6209917;23;20143;-75
2022/12/06 06:39:12;;;;;;;0.80;0.80;;;;;;;;;;6210714;23;20510;-75
2022/12/06 06:41:38;;;;;;;0.90;0.90;;;;;;;;;;6210044;23;20152;-75
2022/12/06 06:44:04;;;;;;;0.80;0.80;;;;;;;;;;6209254;22;20177;-75
2022/12/06 06:46:30;;;;;;;0.83;0.83;;;;;;;;;;6210173;23;20148;-75
2022/12/06 06:48:56;;;;;;;0.83;0.83;;;;;;;;;;6209694;23;20492;-75
2022/12/06 06:51:22;;;;;;;0.70;0.70;;;;;;;;;;6209783;23;20238;-76
2022/12/06 06:53:48;;;;;;;0.80;0.80;;;;;;;;;;6209433;22;20190;-75
2022/12/06 06:56:14;;;;;;;0.80;0.80;;;;;;;;;;6209881;23;20476;-75
2022/12/06 06:58:40;;;;;;;0.70;0.70;;;;;;;;;;6209664;23;20278;-75
2022/12/06 07:01:07;;;;;;;0.80;0.80;;;;;;;;;;6209810;23;20171;-75
2022/12/06 07:03:34;;;;;;;0.80;0.80;;;;;;;;;;6208576;22;20622;-75
2022/12/06 07:06:01;;;;;;;0.77;0.77;;;;;;;;;;6209488;23;20155;-75
2022/12/06 07:08:28;;;;;;;0.80;0.80;;;;;;;;;;6210114;23;20232;-75
2022/12/06 07:10:54;;;;;;;0.80;0.80;;;;;;;;;;6209728;23;20152;-75
2022/12/06 07:13:24;;;;;;;0.80;0.80;;;;;;;;;;6208956;22;20176;-75
2022/12/06 07:15:50;;;;;;;0.80;0.80;;;;;;;;;;6209348;23;20158;-75
2022/12/06 07:18:17;;;;;;;0.90;0.90;;;;;;;;;;6209752;23;20158;-75
2022/12/06 07:20:43;;;;;;;0.80;0.80;;;;;;;;;;6210157;23;20171;-75
2022/12/06 07:23:09;;;;;;;0.80;0.80;;;;;;;;;;6209415;22;20232;-75
2022/12/06 07:25:35;;;;;;;0.80;0.80;;;;;;;;;;6209562;23;20156;-76
2022/12/06 07:28:01;;;;;;;0.80;0.80;;;;;;;;;;6209254;23;20183;-75
2022/12/06 07:30:27;;;;;;;0.83;0.83;;;;;;;;;;6209495;23;20179;-75
2022/12/06 07:32:53;;;;;;;0.83;0.83;;;;;;;;;;6209197;22;20221;-75
2022/12/06 07:35:20;;;;;;;0.80;0.80;;;;;;;;;;6210057;23;20156;-76
2022/12/06 07:37:46;;;;;;;0.80;0.80;;;;;;;;;;6209232;23;20154;-76
2022/12/06 07:40:13;;;;;;;0.90;0.90;;;;;;;;;;6209203;23;20778;-75
2022/12/06 07:45:24;;;;;;;0.80;0.80;;;;;;;;;;6209523;23;20151;-76
2022/12/06 07:47:50;;;;;;;0.87;0.87;;;;;;;;;;6211069;23;20151;-76
2022/12/06 07:50:17;;;;;;;0.70;0.70;;;;;;;;;;6210023;23;20187;-75
2022/12/06 07:52:43;;;;;;;0.80;0.80;;;;;;;;;;6209293;22;20494;-75
2022/12/06 07:55:10;;;;;;;0.70;0.70;;;;;;;;;;6209923;23;20261;-75
2022/12/06 07:57:36;;;;;;;0.80;0.80;;;;;;;;;;6210639;23;20200;-75
2022/12/06 08:00:03;;;;;;;0.77;0.77;;;;;;;;;;6210468;23;20159;-77
2022/12/06 08:02:29;;;;;;;0.70;0.70;;;;;;;;;;6209477;22;20152;-76
2022/12/06 08:04:57;;;;;;;0.80;0.80;;;;;;;;;;6209385;23;20159;-75
2022/12/06 08:07:23;;;;;;;0.80;0.80;;;;;;;;;;6210350;23;20159;-75
2022/12/06 08:09:50;;;;;;;0.70;0.70;;;;;;;;;;6209587;23;20183;-75
2022/12/06 08:12:15;;;;;;;0.80;0.80;;;;;;;;;;6208989;22;20151;-75
2022/12/06 08:14:41;;;;;;;0.80;0.80;;;;;;;;;;6209810;23;20155;-78
2022/12/06 08:17:07;;;;;;;0.70;0.70;;;;;;;;;;6211075;23;20175;-75
2022/12/06 08:19:33;;;;;;;0.80;0.80;;;;;;;;;;6208589;23;20161;-75
2022/12/06 08:21:59;;;;;;;0.70;0.70;;;;;;;;;;6209143;23;20147;-76
2022/12/06 08:24:25;;;;;;;0.70;0.70;;;;;;;;;;6208832;22;20542;-75
2022/12/06 08:26:52;;;;;;;0.70;0.70;;;;;;;;;;6209440;23;20152;-76
2022/12/06 08:29:18;;;;;;;0.90;0.90;;;;;;;;;;6210044;23;20183;-75
2022/12/06 08:31:45;;;;;;;0.80;0.80;;;;;;;;;;6209535;23;20151;-76
2022/12/06 08:34:12;;;;;;;0.80;0.80;;;;;;;;;;6209095;22;20266;-75
2022/12/06 08:36:38;;;;;;;0.70;0.70;;;;;;;;;;6209712;23;20147;-75
2022/12/06 08:39:05;;;;;;;0.80;0.80;;;;;;;;;;6209404;23;20488;-76
2022/12/06 08:44:30;;;;;;;0.80;0.80;;;;;;;;;;6261088;22;20207;-75
2022/12/06 08:46:57;;;;;;;0.70;0.70;;;;;;;;;;6208966;23;20155;-75
2022/12/06 08:49:24;;;;;;;0.80;0.80;;;;;;;;;;6209512;23;20187;-76
2022/12/06 08:51:50;;;;;;;0.80;0.80;;;;;;;;;;6208975;23;20230;-75
2022/12/06 08:54:17;;;;;;;0.83;0.83;;;;;;;;;;6208493;22;20179;-76
2022/12/06 08:56:43;;;;;;;0.80;0.80;;;;;;;;;;6210961;23;20590;-76
2022/12/06 08:59:09;;;;;;;0.70;0.70;;;;;;;;;;6208897;23;20625;-75
2022/12/06 09:01:35;;;;;;;0.80;0.80;;;;;;;;;;6209420;23;20156;-75
2022/12/06 09:04:01;;;;;;;0.70;0.70;;;;;;;;;;6208215;22;20221;-75
2022/12/06 09:06:28;;;;;;;0.90;0.90;;;;;;;;;;6209247;23;20156;-75
2022/12/06 09:08:55;;;;;;;0.80;0.80;;;;;;;;;;6208838;23;20629;-75
2022/12/06 09:11:21;;;;;;;0.70;0.70;;;;;;;;;;6209368;23;20186;-75
2022/12/06 09:13:47;;;;;;;0.73;0.73;;;;;;;;;;6208450;22;20182;-75
2022/12/06 09:16:15;;;;;;;0.77;0.77;;;;;;;;;;6208726;23;20163;-75
2022/12/06 09:18:41;;;;;;;0.70;0.70;;;;;;;;;;6208965;23;20150;-75
2022/12/06 09:21:08;;;;;;;0.70;0.70;;;;;;;;;;6209015;23;20159;-75
2022/12/06 09:23:35;;;;;;;0.80;0.80;;;;;;;;;;6208763;22;20496;-75
2022/12/06 09:26:01;;;;;;;0.87;0.87;;;;;;;;;;6209181;23;20178;-75
2022/12/06 09:28:28;;;;;;;0.77;0.77;;;;;;;;;;6209419;23;20155;-75
2022/12/06 09:30:54;;;;;;;0.70;0.70;;;;;;;;;;6213451;23;20171;-75
2022/12/06 09:33:21;;;;;;;0.70;0.70;;;;;;;;;;6209754;22;20167;-75
2022/12/06 09:35:47;;;;;;;0.70;0.70;;;;;;;;;;6211651;23;20230;-75
2022/12/06 09:38:13;;;;;;;0.70;0.70;;;;;;;;;;6210711;23;20529;-75
2022/12/06 09:40:39;;;;;;;0.70;0.70;;;;;;;;;;6210492;23;20212;-75
2022/12/06 09:43:08;;;;;;;0.80;0.80;;;;;;;;;;6209472;22;20215;-75
2022/12/06 09:45:37;;;;;;;0.80;0.80;;;;;;;;;;6210443;23;20155;-75
2022/12/06 09:48:12;;;;;;;0.80;0.80;;;;;;;;;;6210365;23;20155;-75
2022/12/06 09:50:50;;;;;;;0.77;0.77;;;;;;;;;;6210614;23;20182;-75
2022/12/06 09:53:16;;;;;;;0.80;0.80;;;;;;;;;;6209733;22;20178;-75
2022/12/06 09:56:00;;;;;;;0.67;0.67;;;;;;;;;;6210306;23;20155;-75
2022/12/06 09:58:26;;;;;;;0.70;0.70;;;;;;;;;;6209963;23;20151;-76
2022/12/06 10:01:09;;;;;;;0.60;0.60;;;;;;;;;;6209900;23;20155;-75
2022/12/06 10:03:49;;;;;;;0.70;0.70;;;;;;;;;;6207652;22;20171;-75
2022/12/06 10:06:16;;;;;;;0.70;0.70;;;;;;;;;;6209937;23;20143;-75
2022/12/06 10:08:57;;;;;;;0.70;0.70;;;;;;;;;;6209306;23;20166;-75
2022/12/06 10:11:27;;;;;;;0.70;0.70;;;;;;;;;;6209874;23;20196;-75
2022/12/06 10:14:00;;;;;;;0.70;0.70;;;;;;;;;;6209143;22;20179;-75
2022/12/06 10:16:32;;;;;;;0.80;0.80;;;;;;;;;;6209115;23;20167;-75
2022/12/06 10:18:58;;;;;;;0.70;0.70;;;;;;;;;;6209960;23;20183;-75
2022/12/06 10:21:48;;;;;;;0.80;0.80;;;;;;;;;;6209683;23;20163;-75
2022/12/06 10:24:23;;;;;;;0.70;0.70;;;;;;;;;;6211935;22;20253;-75
2022/12/06 10:26:50;;;;;;;0.70;0.70;;;;;;;;;;6209632;23;20185;-75
2022/12/06 10:29:18;;;;;;;0.70;0.70;;;;;;;;;;6208584;23;20652;-75
2022/12/06 10:31:54;;;;;;;0.80;0.80;;;;;;;;;;6209792;23;20151;-75
2022/12/06 10:34:21;;;;;;;0.80;0.80;;;;;;;;;;6208680;22;20277;-75
2022/12/06 10:36:57;;;;;;;0.70;0.70;;;;;;;;;;6209750;23;20155;-75
2022/12/06 10:39:29;;;;;;;0.73;0.73;;;;;;;;;;6209494;23;20154;-75
2022/12/06 10:42:01;;;;;;;0.80;0.80;;;;;;;;;;6208701;23;20494;-75
2022/12/06 10:44:31;;;;;;;0.80;0.80;;;;;;;;;;6209814;22;20206;-78
2022/12/06 10:47:03;;;;;;;0.70;0.70;;;;;;;;;;6208968;23;20189;-76
2022/12/06 10:49:41;;;;;;;0.70;0.70;;;;;;;;;;6209016;23;20591;-75
2022/12/06 10:52:19;;;;;;;0.80;0.80;;;;;;;;;;6208760;23;20167;-75
2022/12/06 10:54:53;;;;;;;0.70;0.70;;;;;;;;;;6209516;23;20178;-75
2022/12/06 10:57:23;;;;;;;0.80;0.80;;;;;;;;;;6209656;23;20258;-75
2022/12/06 10:59:53;;;;;;;0.70;0.70;;;;;;;;;;6209924;23;20618;-76
2022/12/06 11:02:19;;;;;;;0.80;0.80;;;;;;;;;;6207968;22;20183;-75
2022/12/06 11:04:48;;;;;;;0.80;0.80;;;;;;;;;;6209157;23;20231;-75
2022/12/06 11:07:17;;;;;;;0.60;0.60;;;;;;;;;;6208918;23;20590;-75
2022/12/06 11:09:45;;;;;;;0.70;0.70;;;;;;;;;;6208907;23;20210;-76
2022/12/06 11:12:35;;;;;;;0.73;0.73;;;;;;;;;;6209200;23;20159;-75
2022/12/06 11:15:04;;;;;;;0.90;0.90;;;;;;;;;;6209137;23;20189;-75
2022/12/06 11:17:33;;;;;;;0.80;0.80;;;;;;;;;;6209366;23;20148;-75
2022/12/06 11:20:21;;;;;;;0.80;0.80;;;;;;;;;;6209821;23;20152;-74
2022/12/06 11:23:05;;;;;;;0.80;0.80;;;;;;;;;;6206352;22;20512;-74
2022/12/06 11:25:40;;;;;;;0.80;0.80;;;;;;;;;;6207585;23;20140;-76
2022/12/06 11:28:21;;;;;;;0.70;0.70;;;;;;;;;;6211977;23;20158;-76
2022/12/06 11:30:49;;;;;;;0.77;0.77;;;;;;;;;;6209562;23;20179;-76
2022/12/06 11:33:15;;;;;;;0.70;0.70;;;;;;;;;;6208060;22;20191;-76
2022/12/06 11:35:42;;;;;;;0.60;0.60;;;;;;;;;;6208340;23;20158;-76
2022/12/06 11:38:08;;;;;;;0.70;0.70;;;;;;;;;;6207951;23;20159;-76
2022/12/06 11:40:36;;;;;;;0.60;0.60;;;;;;;;;;6209408;23;20147;-76
2022/12/06 11:43:04;;;;;;;0.80;0.80;;;;;;;;;;6207918;22;20524;-76
2022/12/06 11:45:34;;;;;;;0.80;0.80;;;;;;;;;;6209083;23;20179;-76
2022/12/06 11:48:03;;;;;;;0.70;0.70;;;;;;;;;;6209516;23;20159;-76
2022/12/06 11:50:31;;;;;;;0.73;0.73;;;;;;;;;;6208288;23;20179;-76
2022/12/06 11:53:06;;;;;;;0.70;0.70;;;;;;;;;;6208282;22;20640;-76
2022/12/06 11:55:35;;;;;;;0.70;0.70;;;;;;;;;;6209578;23;20150;-76
2022/12/06 11:58:03;;;;;;;0.70;0.70;;;;;;;;;;6209344;23;20612;-77
2022/12/06 12:00:29;;;;;;;0.70;0.70;;;;;;;;;;6210558;23;20152;-76
2022/12/06 12:02:56;;;;;;;0.70;0.70;;;;;;;;;;6209380;22;20178;-76
2022/12/06 12:05:24;;;;;;;0.90;0.90;;;;;;;;;;6209809;23;20171;-76
2022/12/06 12:07:53;;;;;;;0.80;0.80;;;;;;;;;;6209195;23;20470;-76
2022/12/06 12:10:28;;;;;;;0.70;0.70;;;;;;;;;;6208888;23;20202;-77
2022/12/06 12:15:46;;;;;;;0.70;0.70;;;;;;;;;;6209078;23;20218;-77
2022/12/06 12:18:21;;;;;;;0.70;0.70;;;;;;;;;;6209669;23;20140;-76
2022/12/06 12:20:47;;;;;;;0.77;0.77;;;;;;;;;;6209049;23;20613;-76
2022/12/06 12:23:25;;;;;;;0.80;0.80;;;;;;;;;;6208379;22;20175;-74
2022/12/06 12:25:59;;;;;;;0.70;0.70;;;;;;;;;;6209275;23;20151;-76
2022/12/06 12:28:30;;;;;;;0.80;0.80;;;;;;;;;;6209456;23;20146;-77
2022/12/06 12:30:57;;;;;;;0.70;0.70;;;;;;;;;;6209367;23;20174;-77
2022/12/06 12:33:24;;;;;;;0.80;0.80;;;;;;;;;;6208939;22;20171;-76
2022/12/06 12:35:54;;;;;;;0.80;0.80;;;;;;;;;;6208836;23;20629;-74
2022/12/06 12:38:23;;;;;;;0.80;0.80;;;;;;;;;;6209365;23;20147;-77
2022/12/06 12:40:51;;;;;;;0.70;0.70;;;;;;;;;;6209969;23;20155;-76
2022/12/06 12:43:20;;;;;;;0.70;0.70;;;;;;;;;;6209439;22;20191;-75
2022/12/06 12:46:01;;;;;;;0.70;0.70;;;;;;;;;;6210318;23;20696;-75
2022/12/06 12:48:28;;;;;;;0.70;0.70;;;;;;;;;;6210872;23;20200;-75
2022/12/06 12:50:57;;;;;;;0.80;0.80;;;;;;;;;;6209123;23;20194;-76
2022/12/06 12:53:38;;;;;;;0.80;0.80;;;;;;;;;;6208652;22;20199;-76
2022/12/06 12:56:08;;;;;;;0.80;0.80;;;;;;;;;;6209005;23;20586;-76
2022/12/06 12:58:34;;;;;;;0.80;0.80;;;;;;;;;;6209361;23;20151;-76
2022/12/06 13:01:23;;;;;;;0.70;0.70;;;;;;;;;;6209223;23;20206;-76
2022/12/06 13:03:50;;;;;;;0.80;0.80;;;;;;;;;;6207848;22;20176;-76
2022/12/06 13:06:42;;;;;;;0.70;0.70;;;;;;;;;;6210082;23;20156;-76
2022/12/06 13:09:13;;;;;;;0.80;0.80;;;;;;;;;;6222603;23;20183;-76
2022/12/06 13:11:42;;;;;;;0.80;0.80;;;;;;;;;;6210074;23;20590;-76
2022/12/06 13:14:15;;;;;;;0.80;0.80;;;;;;;;;;6209735;22;20215;-75
2022/12/06 13:16:41;;;;;;;0.80;0.80;;;;;;;;;;6210492;23;20150;-76
2022/12/06 13:19:13;;;;;;;0.70;0.70;;;;;;;;;;6210032;23;20156;-76
2022/12/06 13:21:41;;;;;;;0.70;0.70;;;;;;;;;;6210289;23;20144;-75
2022/12/06 13:24:14;;;;;;;0.77;0.77;;;;;;;;;;6209318;22;20175;-76
2022/12/06 13:26:58;;;;;;;0.80;0.80;;;;;;;;;;6205954;23;20605;-76
2022/12/06 13:29:27;;;;;;;0.80;0.80;;;;;;;;;;6209356;23;20186;-75
2022/12/06 13:31:55;;;;;;;0.70;0.70;;;;;;;;;;6209696;23;20151;-75
2022/12/06 13:34:28;;;;;;;0.73;0.73;;;;;;;;;;6209437;22;20202;-75
2022/12/06 13:36:55;;;;;;;0.80;0.80;;;;;;;;;;6209741;23;20149;-75
2022/12/06 13:39:30;;;;;;;0.70;0.70;;;;;;;;;;6209782;23;20462;-76
2022/12/06 13:44:50;;;;;;;0.80;0.80;;;;;;;;;;6209972;23;20193;-75
2022/12/06 13:47:28;;;;;;;0.70;0.70;;;;;;;;;;6209546;23;20627;-76
2022/12/06 13:49:55;;;;;;;0.70;0.70;;;;;;;;;;6209907;23;20191;-76
2022/12/06 13:52:40;;;;;;;0.80;0.80;;;;;;;;;;6209100;22;20148;-75
2022/12/06 13:55:24;;;;;;;0.70;0.70;;;;;;;;;;6209163;23;20174;-75
2022/12/06 13:57:50;;;;;;;0.73;0.73;;;;;;;;;;6209484;23;20474;-75
2022/12/06 14:00:28;;;;;;;0.70;0.70;;;;;;;;;;6209244;23;20165;-75
2022/12/06 14:03:01;;;;;;;0.70;0.70;;;;;;;;;;6208985;22;20179;-75
2022/12/06 14:05:46;;;;;;;0.80;0.80;;;;;;;;;;6209699;23;20201;-75
2022/12/06 14:08:12;;;;;;;0.63;0.63;;;;;;;;;;6209309;23;20166;-76
2022/12/06 14:10:38;;;;;;;0.70;0.70;;;;;;;;;;6209452;23;20175;-76
2022/12/06 14:13:04;;;;;;;0.70;0.70;;;;;;;;;;6208406;22;20271;-75
2022/12/06 14:15:30;;;;;;;0.77;0.77;;;;;;;;;;6208598;23;20167;-76
2022/12/06 14:17:57;;;;;;;0.80;0.80;;;;;;;;;;6208798;23;20653;-76
2022/12/06 14:20:28;;;;;;;0.90;0.90;;;;;;;;;;6209630;23;20239;-76
2022/12/06 14:22:54;;;;;;;0.73;0.73;;;;;;;;;;6207134;22;20179;-76
2022/12/06 14:25:23;;;;;;;0.70;0.70;;;;;;;;;;6209733;23;20530;-76
2022/12/06 14:27:50;;;;;;;0.70;0.70;;;;;;;;;;6209630;23;20196;-76
2022/12/06 14:30:18;;;;;;;0.80;0.80;;;;;;;;;;6208706;23;20187;-76
2022/12/06 14:32:45;;;;;;;0.80;0.80;;;;;;;;;;6208980;22;20179;-76
2022/12/06 14:35:14;;;;;;;0.70;0.70;;;;;;;;;;6208158;23;20494;-76
2022/12/06 14:37:48;;;;;;;0.73;0.73;;;;;;;;;;6208804;23;20606;-76
2022/12/06 14:40:20;;;;;;;0.80;0.80;;;;;;;;;;6209170;23;20159;-76
2022/12/06 14:43:01;;;;;;;0.70;0.70;;;;;;;;;;6208639;22;20189;-76
2022/12/06 14:45:32;;;;;;;0.70;0.70;;;;;;;;;;6209554;23;20143;-76
2022/12/06 14:47:58;;;;;;;0.70;0.70;;;;;;;;;;6209849;23;20155;-76
2022/12/06 14:50:30;;;;;;;0.70;0.70;;;;;;;;;;6208772;23;20179;-76
2022/12/06 14:52:57;;;;;;;0.70;0.70;;;;;;;;;;6209087;22;20228;-76
2022/12/06 14:55:24;;;;;;;0.77;0.77;;;;;;;;;;6208092;23;20561;-75
2022/12/06 14:57:54;;;;;;;0.70;0.70;;;;;;;;;;6208941;23;20147;-76
2022/12/06 15:00:21;;;;;;;0.80;0.80;;;;;;;;;;6209843;23;20265;-76
2022/12/06 15:03:02;;;;;;;0.90;0.90;;;;;;;;;;6208797;22;20198;-77
2022/12/06 15:05:30;;;;;;;0.80;0.80;;;;;;;;;;6209779;23;20155;-76
2022/12/06 15:07:56;;;;;;;0.80;0.80;;;;;;;;;;6210079;23;20163;-76
2022/12/06 15:10:28;;;;;;;0.80;0.80;;;;;;;;;;6209747;23;20626;-76
2022/12/06 15:12:54;;;;;;;0.80;0.80;;;;;;;;;;6209499;22;20369;-76
2022/12/06 15:15:40;;;;;;;0.70;0.70;;;;;;;;;;6209992;23;20605;-76
2022/12/06 15:18:11;;;;;;;0.80;0.80;;;;;;;;;;6209958;23;20155;-76
2022/12/06 15:20:37;;;;;;;0.80;0.80;;;;;;;;;;6210205;23;20232;-76
2022/12/06 15:23:17;;;;;;;0.80;0.80;;;;;;;;;;6215477;22;20167;-77
2022/12/06 15:25:43;;;;;;;0.77;0.77;;;;;;;;;;6238334;22;20147;-76